createdAt,value
2023-09-14T00:01:19.273Z,20.72
2023-09-14T00:03:48.153Z,20.70
2023-09-14T00:06:16.758Z,20.66
2023-09-14T00:08:45.475Z,20.64
2023-09-14T00:11:14.526Z,20.59
2023-09-14T00:13:43.081Z,20.55
2023-09-14T00:16:11.665Z,20.53
2023-09-14T00:18:40.246Z,20.48
2023-09-14T00:21:08.808Z,20.47
2023-09-14T00:23:37.296Z,20.43
2023-09-14T00:26:05.775Z,20.46
2023-09-14T00:28:34.309Z,20.44
2023-09-14T00:31:03.518Z,20.44
2023-09-14T00:33:32.328Z,20.45
2023-09-14T00:36:00.818Z,20.43
2023-09-14T00:38:29.741Z,20.38
2023-09-14T00:40:58.236Z,20.36
2023-09-14T00:43:26.759Z,20.32
2023-09-14T00:45:56.601Z,20.30
2023-09-14T00:48:26.112Z,20.27
2023-09-14T00:50:54.702Z,20.23
2023-09-14T00:53:23.883Z,20.19
2023-09-14T00:55:52.858Z,20.18
2023-09-14T00:58:22.138Z,20.18
2023-09-14T01:00:51.150Z,20.16
2023-09-14T01:03:20.282Z,20.16
2023-09-14T01:05:50.159Z,20.13
2023-09-14T01:08:18.578Z,20.11
2023-09-14T01:10:47.664Z,20.10
2023-09-14T01:13:57.585Z,20.07
2023-09-14T01:16:34.088Z,20.02
2023-09-14T01:19:39.916Z,19.95
2023-09-14T01:22:43.674Z,19.82
2023-09-14T01:25:46.972Z,19.82
2023-09-14T01:28:16.433Z,19.74
2023-09-14T01:30:44.854Z,19.70
2023-09-14T01:33:16.108Z,19.68
2023-09-14T01:35:57.660Z,19.69
2023-09-14T01:38:28.202Z,19.69
2023-09-14T01:40:57.589Z,19.69
2023-09-14T01:43:26.695Z,19.68
2023-09-14T01:45:55.475Z,19.66
2023-09-14T01:48:24.860Z,19.65
2023-09-14T01:50:53.386Z,19.59
2023-09-14T01:53:22.169Z,19.65
2023-09-14T01:55:50.641Z,19.64
2023-09-14T01:58:19.294Z,19.63
2023-09-14T02:00:47.917Z,19.62
2023-09-14T02:03:16.473Z,19.56
2023-09-14T02:05:45.196Z,19.58
2023-09-14T02:08:13.722Z,19.55
2023-09-14T02:10:42.236Z,19.52
2023-09-14T02:13:10.755Z,19.51
2023-09-14T02:15:39.404Z,19.47
2023-09-14T02:18:09.044Z,19.51
2023-09-14T02:20:37.644Z,19.52
2023-09-14T02:23:07.239Z,19.52
2023-09-14T02:25:35.725Z,19.51
2023-09-14T02:28:04.901Z,19.47
2023-09-14T02:30:33.500Z,19.45
2023-09-14T02:33:01.972Z,19.49
2023-09-14T02:35:30.454Z,19.47
2023-09-14T02:37:59.035Z,19.46
2023-09-14T02:40:30.684Z,19.45
2023-09-14T02:43:00.080Z,19.45
2023-09-14T02:45:28.649Z,19.45
2023-09-14T02:47:57.216Z,19.45
2023-09-14T02:50:25.780Z,19.43
2023-09-14T02:52:54.373Z,19.42
2023-09-14T02:55:22.900Z,19.41
2023-09-14T02:57:51.870Z,19.41
2023-09-14T03:00:20.957Z,19.37
2023-09-14T03:02:50.717Z,19.33
2023-09-14T03:05:19.493Z,19.28
2023-09-14T03:07:49.795Z,19.24
2023-09-14T03:10:18.772Z,19.21
2023-09-14T03:12:47.289Z,19.19
2023-09-14T03:15:15.910Z,19.18
2023-09-14T03:17:44.611Z,19.17
2023-09-14T03:20:13.124Z,19.16
2023-09-14T03:22:41.583Z,19.15
2023-09-14T03:25:10.276Z,19.11
2023-09-14T03:27:40.235Z,19.13
2023-09-14T03:30:10.082Z,19.09
2023-09-14T03:32:38.585Z,19.08
2023-09-14T03:35:07.186Z,19.02
2023-09-14T03:37:37.420Z,19.03
2023-09-14T03:40:09.917Z,19.01
2023-09-14T03:42:39.179Z,18.93
2023-09-14T03:45:08.847Z,18.95
2023-09-14T03:47:37.628Z,18.95
2023-09-14T03:50:07.757Z,18.96
2023-09-14T03:52:37.057Z,18.96
2023-09-14T03:55:06.341Z,18.96
2023-09-14T03:57:34.983Z,18.95
2023-09-14T04:00:10.908Z,18.89
2023-09-14T04:02:41.790Z,18.92
2023-09-14T04:05:18.936Z,18.87
2023-09-14T04:07:49.033Z,18.85
2023-09-14T04:10:17.657Z,18.81
2023-09-14T04:12:46.479Z,18.84
2023-09-14T04:15:15.033Z,18.83
2023-09-14T04:17:44.080Z,18.87
2023-09-14T04:20:12.815Z,18.88
2023-09-14T04:22:42.416Z,18.88
2023-09-14T04:25:10.933Z,18.90
2023-09-14T04:27:39.682Z,18.90
2023-09-14T04:30:09.791Z,18.94
2023-09-14T04:32:39.007Z,18.95
2023-09-14T04:35:08.846Z,18.95
2023-09-14T04:37:37.332Z,18.89
2023-09-14T04:40:10.442Z,18.96
2023-09-14T04:42:39.264Z,18.96
2023-09-14T04:45:08.630Z,19.00
2023-09-14T04:47:37.329Z,19.05
2023-09-14T04:50:06.960Z,19.05
2023-09-14T04:52:35.638Z,19.09
2023-09-14T04:55:05.832Z,19.16
2023-09-14T04:57:34.422Z,19.18
2023-09-14T05:00:05.420Z,19.25
2023-09-14T05:02:34.177Z,19.22
2023-09-14T05:05:04.442Z,19.28
2023-09-14T05:07:33.830Z,19.30
2023-09-14T05:10:04.022Z,19.35
2023-09-14T05:12:46.945Z,19.39
2023-09-14T05:15:19.868Z,19.40
2023-09-14T05:17:48.423Z,19.45
2023-09-14T05:20:17.067Z,19.52
2023-09-14T05:22:45.738Z,19.53
2023-09-14T05:25:14.472Z,19.58
2023-09-14T05:27:43.397Z,19.63
2023-09-14T05:30:12.832Z,19.69
2023-09-14T05:32:43.583Z,19.80
2023-09-14T05:35:13.410Z,19.87
2023-09-14T05:37:41.955Z,19.92
2023-09-14T05:40:16.243Z,19.98
2023-09-14T05:42:53.444Z,20.00
2023-09-14T05:45:25.052Z,20.10
2023-09-14T05:47:53.709Z,20.13
2023-09-14T05:50:37.166Z,20.18
2023-09-14T05:53:07.756Z,20.29
2023-09-14T05:55:46.628Z,20.31
2023-09-14T05:58:20.081Z,20.31
2023-09-14T06:00:49.172Z,20.38
2023-09-14T06:03:20.310Z,20.47
2023-09-14T06:05:48.993Z,20.49
2023-09-14T06:08:17.489Z,20.53
2023-09-14T06:10:46.218Z,20.55
2023-09-14T06:13:14.771Z,20.62
2023-09-14T06:15:43.427Z,20.63
2023-09-14T06:18:12.117Z,20.65
2023-09-14T06:20:42.062Z,20.72
2023-09-14T06:23:10.900Z,20.85
2023-09-14T06:25:39.454Z,20.91
2023-09-14T06:28:08.061Z,20.98
2023-09-14T06:30:38.908Z,21.04
2023-09-14T06:33:07.572Z,21.07
2023-09-14T06:35:36.996Z,21.13
2023-09-14T06:38:05.715Z,21.22
2023-09-14T06:40:34.767Z,21.29
2023-09-14T06:43:05.934Z,21.31
2023-09-14T06:45:34.842Z,21.34
2023-09-14T06:48:03.509Z,21.39
2023-09-14T06:50:32.853Z,21.46
2023-09-14T06:53:01.380Z,21.48
2023-09-14T06:55:30.330Z,21.54
2023-09-14T06:57:59.029Z,21.52
2023-09-14T07:00:29.192Z,21.55
2023-09-14T07:02:58.464Z,21.68
2023-09-14T07:05:27.585Z,21.76
2023-09-14T07:07:56.666Z,21.88
2023-09-14T07:10:26.910Z,21.92
2023-09-14T07:12:55.667Z,22.01
2023-09-14T07:15:24.464Z,22.05
2023-09-14T07:17:53.964Z,22.15
2023-09-14T07:20:23.140Z,22.20
2023-09-14T07:22:52.418Z,22.26
2023-09-14T07:25:22.520Z,22.32
2023-09-14T07:27:52.239Z,22.38
2023-09-14T07:30:21.224Z,22.43
2023-09-14T07:32:51.131Z,22.48
2023-09-14T07:35:19.819Z,22.52
2023-09-14T07:37:48.364Z,22.51
2023-09-14T07:40:17.027Z,22.57
2023-09-14T07:42:45.715Z,22.56
2023-09-14T07:45:14.896Z,22.68
2023-09-14T07:47:49.003Z,22.79
2023-09-14T07:50:18.409Z,22.84
2023-09-14T07:52:47.768Z,22.86
2023-09-14T07:55:16.846Z,22.91
2023-09-14T07:57:46.026Z,23.01
2023-09-14T08:00:14.911Z,23.06
2023-09-14T08:02:43.539Z,23.13
2023-09-14T08:05:13.238Z,23.16
2023-09-14T08:07:48.730Z,23.20
2023-09-14T08:10:17.549Z,23.30
2023-09-14T08:12:46.948Z,23.32
2023-09-14T08:15:16.709Z,23.39
2023-09-14T08:17:46.335Z,23.48
2023-09-14T08:20:15.157Z,23.53
2023-09-14T08:22:43.904Z,23.59
2023-09-14T08:25:12.629Z,23.65
2023-09-14T08:27:41.906Z,23.70
2023-09-14T08:30:12.257Z,23.77
2023-09-14T08:32:40.799Z,23.80
2023-09-14T08:35:27.294Z,23.86
2023-09-14T08:37:56.673Z,23.97
2023-09-14T08:40:27.034Z,24.04
2023-09-14T08:42:56.177Z,24.09
2023-09-14T08:45:33.099Z,24.14
2023-09-14T08:48:06.303Z,24.24
2023-09-14T08:50:35.424Z,24.30
2023-09-14T08:53:04.147Z,24.39
2023-09-14T08:55:40.931Z,24.51
2023-09-14T08:58:11.565Z,24.57
2023-09-14T09:00:41.361Z,24.65
2023-09-14T09:03:10.089Z,24.70
2023-09-14T09:05:42.786Z,24.78
2023-09-14T09:08:12.551Z,24.89
2023-09-14T09:10:43.576Z,24.96
2023-09-14T09:13:23.589Z,25.02
2023-09-14T09:15:52.202Z,25.06
2023-09-14T09:18:21.267Z,25.13
2023-09-14T09:20:50.888Z,25.20
2023-09-14T09:23:22.443Z,25.24
2023-09-14T09:25:54.414Z,25.32
2023-09-14T09:28:32.377Z,25.41
2023-09-14T09:31:03.686Z,25.47
2023-09-14T09:33:37.617Z,25.53
2023-09-14T09:36:17.838Z,25.59
2023-09-14T09:38:50.040Z,25.66
2023-09-14T09:41:19.127Z,25.72
2023-09-14T09:43:51.238Z,25.79
2023-09-14T09:46:19.984Z,25.85
2023-09-14T09:48:49.560Z,25.92
2023-09-14T09:51:23.562Z,25.97
2023-09-14T09:54:09.188Z,26.03
2023-09-14T09:56:40.386Z,26.09
2023-09-14T09:59:14.519Z,26.17
2023-09-14T10:01:49.658Z,26.21
2023-09-14T10:04:19.529Z,26.29
2023-09-14T10:06:58.727Z,26.39
2023-09-14T10:09:35.713Z,26.45
2023-09-14T10:12:05.114Z,26.50
2023-09-14T10:14:37.304Z,26.53
2023-09-14T10:17:12.418Z,26.62
2023-09-14T10:19:44.098Z,26.69
2023-09-14T10:22:13.281Z,26.76
2023-09-14T10:24:43.391Z,26.83
2023-09-14T10:27:14.918Z,26.89
2023-09-14T10:29:45.544Z,26.91
2023-09-14T10:32:19.157Z,27.02
2023-09-14T10:35:05.035Z,27.09
2023-09-14T10:37:37.366Z,27.15
2023-09-14T10:40:10.214Z,27.18
2023-09-14T10:42:38.897Z,27.13
2023-09-14T10:45:09.355Z,27.23
2023-09-14T10:47:41.755Z,27.28
2023-09-14T10:50:12.088Z,27.30
2023-09-14T10:52:43.189Z,27.38
2023-09-14T10:55:14.214Z,27.43
2023-09-14T10:57:43.351Z,27.48
2023-09-14T11:00:49.503Z,27.55
2023-09-14T11:03:24.622Z,27.63
2023-09-14T11:05:56.730Z,27.71
2023-09-14T11:09:05.757Z,27.67
2023-09-14T11:12:22.725Z,27.80
2023-09-14T11:15:22.483Z,27.86
2023-09-14T11:17:56.394Z,27.92
2023-09-14T11:20:26.641Z,27.93
2023-09-14T11:23:04.445Z,27.96
2023-09-14T11:25:51.113Z,28.01
2023-09-14T11:28:26.833Z,28.04
2023-09-14T11:30:55.743Z,28.03
2023-09-14T11:33:26.899Z,28.11
2023-09-14T11:35:57.310Z,28.17
2023-09-14T11:38:33.553Z,28.24
2023-09-14T11:41:23.860Z,28.24
2023-09-14T11:51:56.054Z,28.56
2023-09-14T11:54:32.869Z,28.62
2023-09-14T11:57:05.614Z,28.68
2023-09-14T11:59:34.662Z,28.74
2023-09-14T12:02:05.005Z,28.75
2023-09-14T12:04:33.860Z,28.81
2023-09-14T12:07:03.405Z,28.80
2023-09-14T12:09:42.969Z,28.86
2023-09-14T12:12:27.622Z,28.93
2023-09-14T12:14:59.373Z,28.96
2023-09-14T12:17:30.340Z,28.94
2023-09-14T12:20:01.946Z,28.87
2023-09-14T12:22:33.523Z,28.82
2023-09-14T12:25:05.555Z,28.84
2023-09-14T12:27:36.414Z,28.89
2023-09-14T12:30:09.291Z,28.92
2023-09-14T12:32:41.899Z,28.88
2023-09-14T12:35:14.323Z,28.94
2023-09-14T12:37:44.689Z,29.03
2023-09-14T12:40:14.569Z,29.13
2023-09-14T12:42:44.735Z,29.14
2023-09-14T12:45:18.332Z,29.10
2023-09-14T12:47:48.855Z,29.05
2023-09-14T12:50:17.493Z,29.14
2023-09-14T12:52:55.109Z,29.29
2023-09-14T12:55:23.999Z,29.41
2023-09-14T12:57:54.958Z,29.57
2023-09-14T13:00:29.153Z,29.75
2023-09-14T13:02:58.085Z,29.98
2023-09-14T13:05:28.384Z,30.15
2023-09-14T13:08:01.468Z,30.34
2023-09-14T13:10:34.358Z,30.56
2023-09-14T13:13:03.014Z,30.65
2023-09-14T13:15:32.964Z,30.57
2023-09-14T13:18:17.137Z,30.45
2023-09-14T13:20:50.474Z,30.44
2023-09-14T13:23:25.422Z,30.59
2023-09-14T13:25:53.987Z,30.77
2023-09-14T13:28:22.660Z,30.94
2023-09-14T13:30:51.291Z,31.11
2023-09-14T13:33:23.423Z,31.23
2023-09-14T13:35:53.773Z,31.31
2023-09-14T13:38:22.267Z,31.24
2023-09-14T13:40:51.748Z,31.17
2023-09-14T13:43:20.208Z,31.15
2023-09-14T13:45:48.900Z,31.11
2023-09-14T13:48:17.473Z,30.99
2023-09-14T13:50:45.837Z,30.81
2023-09-14T13:53:16.857Z,30.65
2023-09-14T13:55:46.367Z,30.54
2023-09-14T13:58:14.911Z,30.45
2023-09-14T14:00:43.250Z,30.35
2023-09-14T14:03:12.955Z,30.29
2023-09-14T14:05:42.671Z,30.21
2023-09-14T14:08:11.051Z,30.14
2023-09-14T14:10:40.184Z,30.05
2023-09-14T14:13:08.889Z,29.95
2023-09-14T14:15:37.519Z,29.83
2023-09-14T14:18:06.310Z,29.74
2023-09-14T14:20:36.246Z,29.66
2023-09-14T14:23:06.841Z,29.54
2023-09-14T14:25:35.483Z,29.50
2023-09-14T14:28:04.088Z,29.44
2023-09-14T14:30:32.564Z,29.36
2023-09-14T14:33:00.964Z,29.29
2023-09-14T14:35:29.564Z,29.20
2023-09-14T14:37:58.428Z,29.07
2023-09-14T14:42:59.198Z,28.99
2023-09-14T14:45:27.842Z,28.90
2023-09-14T14:47:56.438Z,28.83
2023-09-14T14:50:24.906Z,28.78
2023-09-14T14:52:53.418Z,28.74
2023-09-14T14:55:23.350Z,28.69
2023-09-14T14:57:51.970Z,28.64
2023-09-14T15:00:20.869Z,28.58
2023-09-14T15:02:49.393Z,28.52
2023-09-14T15:05:17.916Z,28.48
2023-09-14T15:07:47.525Z,28.43
2023-09-14T15:10:16.062Z,28.37
2023-09-14T15:12:44.582Z,28.30
2023-09-14T15:15:18.933Z,28.25
2023-09-14T15:17:47.450Z,28.21
2023-09-14T15:20:16.358Z,28.16
2023-09-14T15:22:45.649Z,28.11
2023-09-14T15:25:14.560Z,28.06
2023-09-14T15:27:43.207Z,28.00
2023-09-14T15:30:12.796Z,27.94
2023-09-14T15:32:45.446Z,27.85
2023-09-14T15:35:14.567Z,27.77
2023-09-14T15:37:43.219Z,27.69
2023-09-14T15:40:13.169Z,27.60
2023-09-14T15:42:44.626Z,27.51
2023-09-14T15:45:13.356Z,27.40
2023-09-14T15:47:43.674Z,27.35
2023-09-14T15:50:12.386Z,27.26
2023-09-14T15:52:40.816Z,27.19
2023-09-14T15:55:21.097Z,27.09
2023-09-14T15:57:58.659Z,27.01
2023-09-14T16:00:27.539Z,26.93
2023-09-14T16:02:56.098Z,26.85
2023-09-14T16:05:24.637Z,26.73
2023-09-14T16:08:08.309Z,26.71
2023-09-14T16:10:37.698Z,26.61
2023-09-14T16:13:06.583Z,26.58
2023-09-14T16:15:35.192Z,26.53
2023-09-14T16:18:04.991Z,26.47
2023-09-14T16:20:33.649Z,26.42
2023-09-14T16:23:02.298Z,26.34
2023-09-14T16:25:32.280Z,26.28
2023-09-14T16:28:00.970Z,26.22
2023-09-14T16:30:29.548Z,26.22
2023-09-14T16:32:58.175Z,26.17
2023-09-14T16:35:26.832Z,26.13
2023-09-14T16:37:55.298Z,26.09
2023-09-14T16:40:23.927Z,26.05
2023-09-14T16:42:52.493Z,26.01
2023-09-14T16:45:21.661Z,25.97
2023-09-14T16:47:50.378Z,25.94
2023-09-14T16:50:19.405Z,25.91
2023-09-14T16:52:47.890Z,25.87
2023-09-14T16:55:17.900Z,25.81
2023-09-14T16:57:48.896Z,25.78
2023-09-14T17:00:19.986Z,25.79
2023-09-14T17:02:48.624Z,25.76
2023-09-14T17:05:19.913Z,25.74
2023-09-14T17:07:48.975Z,25.72
2023-09-14T17:10:19.776Z,25.71
2023-09-14T17:12:48.258Z,25.69
2023-09-14T17:15:16.986Z,25.67
2023-09-14T17:17:45.643Z,25.66
2023-09-14T17:20:14.167Z,25.65
2023-09-14T17:22:42.639Z,25.64
2023-09-14T17:25:11.565Z,25.65
2023-09-14T17:27:41.217Z,25.64
2023-09-14T17:30:10.197Z,25.55
2023-09-14T17:32:38.797Z,25.57
2023-09-14T17:35:08.210Z,25.52
2023-09-14T17:37:37.367Z,25.34
2023-09-14T17:40:09.654Z,25.30
2023-09-14T17:42:38.293Z,25.24
2023-09-14T17:45:07.881Z,25.19
2023-09-14T17:47:36.502Z,25.14
2023-09-14T17:50:06.276Z,25.09
2023-09-14T17:52:34.861Z,25.07
2023-09-14T17:55:04.040Z,25.04
2023-09-14T17:57:32.566Z,24.94
2023-09-14T18:00:01.015Z,24.83
2023-09-14T18:02:29.710Z,24.72
2023-09-14T18:04:58.363Z,24.66
2023-09-14T18:07:26.894Z,24.57
2023-09-14T18:09:55.561Z,24.51
2023-09-14T18:12:24.159Z,24.43
2023-09-14T18:14:52.664Z,24.41
2023-09-14T18:17:21.523Z,24.37
2023-09-14T18:19:52.058Z,24.34
2023-09-14T18:22:20.537Z,24.27
2023-09-14T18:24:53.971Z,24.28
2023-09-14T18:27:22.887Z,24.24
2023-09-14T18:29:51.290Z,24.21
2023-09-14T18:32:19.880Z,24.14
2023-09-14T18:34:49.493Z,24.12
2023-09-14T18:37:17.996Z,24.10
2023-09-14T18:39:48.912Z,24.09
2023-09-14T18:42:18.012Z,24.08
2023-09-14T18:44:46.511Z,24.07
2023-09-14T18:47:14.984Z,24.03
2023-09-14T18:49:43.477Z,23.99
2023-09-14T18:52:15.992Z,23.96
2023-09-14T18:54:45.318Z,23.89
2023-09-14T18:57:14.018Z,23.86
2023-09-14T18:59:42.780Z,23.84
2023-09-14T19:02:11.286Z,23.77
2023-09-14T19:04:39.821Z,23.67
2023-09-14T19:07:08.384Z,23.58
2023-09-14T19:09:38.226Z,23.59
2023-09-14T19:12:07.293Z,23.52
2023-09-14T19:14:35.860Z,23.55
2023-09-14T19:17:06.640Z,23.49
2023-09-14T19:19:35.379Z,23.39
2023-09-14T19:22:06.065Z,23.27
2023-09-14T19:24:35.782Z,23.07
2023-09-14T19:27:04.888Z,22.88
2023-09-14T19:29:33.270Z,22.66
2023-09-14T19:32:01.785Z,22.50
2023-09-14T19:34:30.783Z,22.41
2023-09-14T19:37:00.196Z,22.24
2023-09-14T19:39:28.773Z,22.05
2023-09-14T19:41:57.357Z,22.01
2023-09-14T19:44:25.892Z,21.98
2023-09-14T19:46:54.367Z,21.88
2023-09-14T19:49:22.904Z,21.84
2023-09-14T19:51:51.419Z,21.76
2023-09-14T19:54:19.990Z,21.69
2023-09-14T19:56:48.580Z,21.62
2023-09-14T19:59:17.132Z,21.61
2023-09-14T20:01:49.513Z,21.57
2023-09-14T20:04:20.100Z,21.51
2023-09-14T20:06:48.660Z,21.42
2023-09-14T20:09:17.311Z,21.36
2023-09-14T20:11:45.902Z,21.36
2023-09-14T20:14:14.605Z,21.29
2023-09-14T20:16:45.118Z,21.25
2023-09-14T20:19:13.723Z,21.21
2023-09-14T20:21:42.192Z,21.32
2023-09-14T20:24:10.801Z,21.34
2023-09-14T20:26:39.927Z,21.32
2023-09-14T20:29:09.427Z,21.36
2023-09-14T20:31:38.590Z,21.35
2023-09-14T20:34:07.420Z,21.40
2023-09-14T20:36:36.721Z,21.41
2023-09-14T20:39:11.864Z,21.38
2023-09-14T20:41:40.481Z,21.32
2023-09-14T20:44:08.997Z,21.31
2023-09-14T20:46:38.681Z,21.37
2023-09-14T20:49:15.508Z,21.35
2023-09-14T20:51:45.927Z,21.45
2023-09-14T20:54:17.575Z,21.48
2023-09-14T20:56:46.216Z,21.46
2023-09-14T20:59:17.418Z,21.48
2023-09-14T21:01:47.332Z,21.47
2023-09-14T21:04:16.051Z,21.43
2023-09-14T21:06:44.710Z,21.46
2023-09-14T21:09:13.217Z,21.45
2023-09-14T21:11:41.686Z,21.50
2023-09-14T21:14:10.204Z,21.51
2023-09-14T21:16:38.848Z,21.50
2023-09-14T21:19:07.367Z,21.47
2023-09-14T21:21:37.917Z,21.42
2023-09-14T21:24:06.823Z,21.39
2023-09-14T21:26:35.338Z,21.39
2023-09-14T21:29:03.880Z,21.39
2023-09-14T21:31:33.262Z,21.40
2023-09-14T21:34:02.378Z,21.40
2023-09-14T21:36:31.058Z,21.41
2023-09-14T21:38:59.596Z,21.39
2023-09-14T21:41:28.546Z,21.43
2023-09-14T21:43:56.942Z,21.42
2023-09-14T21:46:26.881Z,21.39
2023-09-14T21:48:55.454Z,21.39
2023-09-14T21:51:23.985Z,21.36
2023-09-14T21:53:52.805Z,21.36
2023-09-14T21:56:21.583Z,21.35
2023-09-14T21:58:50.233Z,21.36
2023-09-14T22:01:19.080Z,21.37
2023-09-14T22:03:52.072Z,21.38
2023-09-14T22:06:25.318Z,21.38
2023-09-14T22:08:54.422Z,21.35
2023-09-14T22:11:23.048Z,21.36
2023-09-14T22:13:51.642Z,21.31
2023-09-14T22:16:20.492Z,21.33
2023-09-14T22:18:49.432Z,21.25
2023-09-14T22:21:20.861Z,21.19
2023-09-14T22:23:49.304Z,21.16
2023-09-14T22:26:18.245Z,21.15
2023-09-14T22:28:46.871Z,21.13
2023-09-14T22:31:17.850Z,21.14
2023-09-14T22:33:46.398Z,21.14
2023-09-14T22:36:14.922Z,21.13
2023-09-14T22:38:43.708Z,21.08
2023-09-14T22:41:12.304Z,21.08
2023-09-14T22:43:41.705Z,21.06
2023-09-14T22:46:11.290Z,21.09
2023-09-14T22:48:42.385Z,21.08
2023-09-14T22:51:18.216Z,20.96
2023-09-14T22:53:49.186Z,20.87
2023-09-14T22:56:18.688Z,20.84
2023-09-14T22:58:52.525Z,20.85
2023-09-14T23:01:27.749Z,20.86
2023-09-14T23:03:57.442Z,20.86
2023-09-14T23:06:26.094Z,20.87
2023-09-14T23:08:54.566Z,20.85
2023-09-14T23:11:29.971Z,20.78
2023-09-14T23:13:59.288Z,20.67
2023-09-14T23:16:40.994Z,20.66
2023-09-14T23:19:10.476Z,20.62
2023-09-14T23:21:39.455Z,20.66
2023-09-14T23:24:11.328Z,20.66
2023-09-14T23:26:41.791Z,20.64
2023-09-14T23:29:12.910Z,20.63
2023-09-14T23:31:43.892Z,20.65
2023-09-14T23:34:18.144Z,20.68
2023-09-14T23:36:47.398Z,20.71
2023-09-14T23:39:16.325Z,20.73
2023-09-14T23:41:45.515Z,20.74
2023-09-14T23:44:17.067Z,20.74
2023-09-14T23:46:47.311Z,20.77
2023-09-14T23:49:16.287Z,20.75
2023-09-14T23:51:46.099Z,20.78
2023-09-14T23:54:16.069Z,20.83
2023-09-14T23:56:44.663Z,20.84
2023-09-14T23:59:13.455Z,20.86
